Time;durP1;ratioP1;P1;durP2;ratioP2;P2;SDS_P1;SDS_P2;PMS_P1;PMS_P2;Temp;Humidity;BMP_temperature;BMP_pressure;BME280_temperature;BME280_humidity;BME280_pressure;Samples;Min_cycle;Max_cycle;Signal;HPM_P1;HPM_P2
2021/12/11 00:01:00;;;;;;;2.75;1.10;;;19.20;50.50;;;;;;4952569;29;20058;-83
2021/12/11 00:03:28;;;;;;;1.63;0.90;;;19.20;50.40;;;;;;4952314;29;20487;-83
2021/12/11 00:05:56;;;;;;;2.25;0.80;;;19.20;50.40;;;;;;4952337;29;20047;-83
2021/12/11 00:08:26;;;;;;;1.98;1.00;;;19.20;50.40;;;;;;4935176;28;20050;-83
2021/12/11 00:11:00;;;;;;;1.58;0.90;;;19.20;50.40;;;;;;4952285;29;20089;-83
2021/12/11 00:13:28;;;;;;;1.98;0.98;;;19.20;50.40;;;;;;4936566;29;20049;-84
2021/12/11 00:15:54;;;;;;;2.38;1.10;;;19.20;50.40;;;;;;4951833;29;20459;-84
2021/12/11 00:18:25;;;;;;;2.08;0.90;;;19.20;50.40;;;;;;4951993;29;20051;-83
2021/12/11 00:21:00;;;;;;;1.95;0.90;;;19.20;50.40;;;;;;4949162;28;20059;-83
2021/12/11 00:23:32;;;;;;;2.63;1.10;;;19.20;50.40;;;;;;4951592;29;20062;-83
2021/12/11 00:25:58;;;;;;;1.98;1.00;;;19.20;50.40;;;;;;4952118;29;20400;-84
2021/12/11 00:28:23;;;;;;;2.58;1.00;;;19.20;50.40;;;;;;4968140;28;20058;-83
2021/12/11 00:30:49;;;;;;;2.55;1.00;;;19.20;50.40;;;;;;4967127;28;20051;-84
2021/12/11 00:33:21;;;;;;;2.28;0.77;;;19.20;50.40;;;;;;4951869;28;20055;-83
2021/12/11 00:35:47;;;;;;;2.22;0.90;;;19.20;50.30;;;;;;4935792;28;20063;-83
2021/12/11 00:38:16;;;;;;;2.47;1.10;;;19.20;50.40;;;;;;4912992;29;20052;-83
2021/12/11 00:40:44;;;;;;;2.17;0.90;;;19.20;50.30;;;;;;4929657;29;20040;-83
2021/12/11 00:43:15;;;;;;;2.30;0.88;;;20.60;51.10;;;;;;4913460;29;20721;-83
2021/12/11 00:45:40;;;;;;;2.38;1.23;;;19.20;50.40;;;;;;4913313;29;20095;-83
2021/12/11 00:48:11;;;;;;;2.85;1.10;;;19.20;50.30;;;;;;4913252;29;20043;-84
2021/12/11 00:50:43;;;;;;;2.25;0.95;;;19.20;50.40;;;;;;4913011;29;20051;-83
2021/12/11 00:53:14;;;;;;;1.83;0.90;;;19.30;50.40;;;;;;4900950;28;20419;-83
2021/12/11 00:55:47;;;;;;;2.03;1.00;;;19.30;50.40;;;;;;4923117;29;20150;-83
2021/12/11 00:58:23;;;;;;;2.08;1.02;;;19.30;50.40;;;;;;4947681;29;20055;-83
2021/12/11 01:00:54;;;;;;;2.05;0.90;;;19.30;50.40;;;;;;4932613;29;20508;-83
2021/12/11 01:03:23;;;;;;;2.35;1.05;;;19.30;50.40;;;;;;4931992;29;20055;-83
2021/12/11 01:05:51;;;;;;;2.53;1.20;;;19.30;50.40;;;;;;4947399;29;20058;-83
2021/12/11 01:08:24;;;;;;;3.72;1.30;;;19.30;50.30;;;;;;4909666;29;20056;-83
2021/12/11 01:10:53;;;;;;;4.70;1.10;;;19.20;50.20;;;;;;4894262;29;20140;-83
2021/12/11 01:13:23;;;;;;;2.28;1.08;;;19.30;50.30;;;;;;4893700;29;20045;-83
2021/12/11 01:15:55;;;;;;;2.08;1.00;;;19.30;50.30;;;;;;4894477;29;20048;-84
2021/12/11 01:18:23;;;;;;;2.15;1.08;;;19.30;50.20;;;;;;4893770;29;20393;-83
2021/12/11 01:21:12;;;;;;;2.80;1.20;;;19.30;50.30;;;;;;4895895;29;20048;-83
2021/12/11 01:26:13;;;;;;;2.08;1.02;;;19.30;50.20;;;;;;4928018;29;20055;-83
2021/12/11 01:28:39;;;;;;;2.17;1.17;;;19.30;50.30;;;;;;4928466;29;20048;-83
2021/12/11 01:31:11;;;;;;;2.28;1.10;;;19.30;50.20;;;;;;4928332;29;20071;-83
2021/12/11 01:33:37;;;;;;;2.05;1.02;;;19.30;50.20;;;;;;4896729;29;20551;-83
2021/12/11 01:36:03;;;;;;;2.67;1.02;;;19.30;50.20;;;;;;4928515;29;20143;-83
2021/12/11 01:38:29;;;;;;;2.03;1.10;;;19.30;50.20;;;;;;4896664;29;20111;-83
2021/12/11 01:41:00;;;;;;;2.22;0.90;;;19.30;50.20;;;;;;4927850;29;20400;-83
2021/12/11 01:43:27;;;;;;;3.17;0.90;;;20.60;50.90;;;;;;4928147;29;21072;-83
2021/12/11 01:45:53;;;;;;;2.65;1.05;;;19.30;50.20;;;;;;4928442;29;20123;-83
2021/12/11 01:48:22;;;;;;;2.78;1.33;;;19.30;50.20;;;;;;4927653;29;20079;-83
2021/12/11 01:50:50;;;;;;;3.13;1.13;;;19.30;50.20;;;;;;4946014;29;20430;-83
2021/12/11 01:53:23;;;;;;;1.90;1.00;;;19.50;50.30;;;;;;4934744;29;20070;-83
2021/12/11 01:55:55;;;;;;;2.15;1.02;;;19.30;50.20;;;;;;4933740;29;20044;-83
2021/12/11 01:58:29;;;;;;;2.40;1.00;;;19.30;50.20;;;;;;4934235;29;20043;-83
2021/12/11 02:00:57;;;;;;;2.38;1.00;;;19.30;50.20;;;;;;4933647;29;20055;-83
2021/12/11 02:03:25;;;;;;;2.20;1.00;;;20.70;51.00;;;;;;4934071;29;20058;-83
2021/12/11 02:05:51;;;;;;;2.00;0.98;;;19.30;50.20;;;;;;4934061;29;20059;-83
2021/12/11 02:08:19;;;;;;;2.05;0.93;;;19.30;50.20;;;;;;4933577;29;20047;-83
2021/12/11 02:10:50;;;;;;;2.30;1.02;;;19.30;50.20;;;;;;4933871;29;20058;-83
2021/12/11 02:13:26;;;;;;;2.97;1.30;;;19.30;50.20;;;;;;4934155;29;20133;-83
2021/12/11 02:15:53;;;;;;;2.47;1.30;;;19.30;50.20;;;;;;4933553;29;20058;-83
2021/12/11 02:18:34;;;;;;;2.08;1.10;;;19.40;50.30;;;;;;4949946;29;20558;-83
2021/12/11 02:21:08;;;;;;;2.78;1.20;;;19.40;50.30;;;;;;4933924;29;20054;-82
2021/12/11 02:23:34;;;;;;;2.40;0.90;;;19.30;50.20;;;;;;4933387;29;20051;-82
2021/12/11 02:26:05;;;;;;;2.28;1.15;;;19.40;50.30;;;;;;4934122;29;20073;-82
2021/12/11 02:28:43;;;;;;;1.80;0.90;;;19.40;50.20;;;;;;4933724;29;20055;-83
2021/12/11 02:31:27;;;;;;;2.05;1.00;;;19.40;50.20;;;;;;4934112;29;20066;-83
2021/12/11 02:34:09;;;;;;;2.05;0.93;;;19.40;50.20;;;;;;4749986;29;5088181;-83
2021/12/11 02:37:00;;;;;;;3.03;1.15;;;19.40;50.20;;;;;;4933300;29;20446;-83
2021/12/11 02:39:27;;;;;;;2.08;0.90;;;19.40;50.20;;;;;;4923772;28;20059;-82
2021/12/11 02:41:55;;;;;;;2.17;0.98;;;19.40;50.20;;;;;;4949753;29;20051;-83
2021/12/11 02:44:42;;;;;;;3.10;1.20;;;19.40;50.10;;;;;;4927408;29;20055;-83
2021/12/11 02:47:24;;;;;;;1.92;0.93;;;19.40;50.10;;;;;;4933784;29;20051;-83
2021/12/11 02:50:00;;;;;;;1.93;1.00;;;19.40;50.20;;;;;;4933130;29;20130;-83
2021/12/11 02:52:38;;;;;;;2.72;1.30;;;19.40;50.10;;;;;;4932593;28;20066;-82
2021/12/11 02:55:11;;;;;;;1.70;0.90;;;19.30;50.10;;;;;;4933774;29;20059;-83
2021/12/11 02:57:45;;;;;;;1.83;1.00;;;19.40;50.10;;;;;;4932669;29;20062;-83
2021/12/11 03:00:13;;;;;;;1.92;1.08;;;19.40;50.20;;;;;;4933792;29;20051;-83
2021/12/11 03:02:44;;;;;;;2.22;1.08;;;19.40;50.10;;;;;;4933788;29;20475;-83
2021/12/11 03:05:13;;;;;;;2.22;1.10;;;19.30;50.10;;;;;;4933066;29;20054;-83
2021/12/11 03:07:44;;;;;;;2.33;1.10;;;19.40;50.10;;;;;;4934047;29;20107;-83
2021/12/11 03:10:29;;;;;;;1.50;0.55;;;19.40;50.20;;;;;;1977793;29;10021765;-83
2021/12/11 03:12:56;;;;;;;2.25;1.10;;;19.40;50.10;;;;;;3558302;29;10001097;-82
2021/12/11 03:15:21;;;;;;;2.88;1.05;;;19.40;50.10;;;;;;4914553;29;20103;-83
2021/12/11 03:17:47;;;;;;;2.05;1.00;;;19.40;50.10;;;;;;4930709;29;20040;-83
2021/12/11 03:20:14;;;;;;;1.77;0.77;;;19.40;50.10;;;;;;4929767;29;20538;-84
2021/12/11 03:22:41;;;;;;;2.33;0.95;;;19.40;50.10;;;;;;4914277;29;20055;-84
2021/12/11 03:25:08;;;;;;;1.75;0.90;;;19.40;50.10;;;;;;4913777;29;20067;-84
2021/12/11 03:27:34;;;;;;;1.75;1.00;;;19.40;50.10;;;;;;4914536;29;20488;-85
2021/12/11 03:29:59;;;;;;;2.40;1.13;;;19.40;50.10;;;;;;4930461;29;20051;-83
2021/12/11 03:32:25;;;;;;;2.22;1.10;;;19.40;50.10;;;;;;4929680;29;20854;-83
2021/12/11 03:34:51;;;;;;;2.42;1.00;;;19.40;50.00;;;;;;4930327;29;20048;-83
2021/12/11 03:37:17;;;;;;;2.28;1.15;;;19.40;50.10;;;;;;4930363;29;20063;-84
2021/12/11 03:39:45;;;;;;;1.63;0.85;;;19.40;50.10;;;;;;4914133;29;20074;-83
2021/12/11 03:42:14;;;;;;;1.98;1.00;;;19.40;50.00;;;;;;4931319;29;20044;-83
2021/12/11 03:44:40;;;;;;;2.78;1.33;;;19.40;50.00;;;;;;4932990;29;20082;-83
2021/12/11 03:47:11;;;;;;;2.45;1.23;;;19.40;50.00;;;;;;4917105;29;20504;-83
2021/12/11 03:49:37;;;;;;;2.63;1.20;;;19.40;50.00;;;;;;4933874;29;20056;-83
2021/12/11 03:52:05;;;;;;;2.55;1.00;;;19.40;50.00;;;;;;4933444;29;20050;-84
2021/12/11 03:54:31;;;;;;;2.30;0.98;;;19.40;49.90;;;;;;4917381;29;20052;-83
2021/12/11 03:56:57;;;;;;;2.20;1.13;;;19.40;49.90;;;;;;4933575;29;20129;-83
2021/12/11 03:59:23;;;;;;;2.65;1.17;;;19.40;49.90;;;;;;4933642;29;20571;-83
2021/12/11 04:01:56;;;;;;;1.90;0.98;;;19.40;49.90;;;;;;4934108;29;20333;-83
2021/12/11 04:04:46;;;;;;;2.10;0.90;;;19.40;50.00;;;;;;4917981;29;20107;-83
2021/12/11 04:07:17;;;;;;;3.47;1.02;;;19.40;49.90;;;;;;4932714;29;20103;-83
2021/12/11 04:09:43;;;;;;;3.10;1.30;;;19.40;50.00;;;;;;4923353;29;20068;-83
2021/12/11 04:12:09;;;;;;;2.70;0.98;;;19.40;49.90;;;;;;4933238;29;20055;-83
2021/12/11 04:14:37;;;;;;;2.63;1.00;;;19.40;50.00;;;;;;4916917;29;20885;-83
2021/12/11 04:17:03;;;;;;;2.65;1.17;;;19.50;50.00;;;;;;4936239;29;20054;-82
2021/12/11 04:19:28;;;;;;;2.00;1.00;;;19.40;49.90;;;;;;4935935;29;20106;-83
2021/12/11 04:21:54;;;;;;;2.33;1.10;;;19.40;50.00;;;;;;4935281;29;20063;-82
2021/12/11 04:24:23;;;;;;;2.53;1.00;;;19.40;49.90;;;;;;4935950;29;20051;-82
2021/12/11 04:26:49;;;;;;;2.10;1.00;;;19.40;49.90;;;;;;4920605;29;20576;-82
2021/12/11 04:29:14;;;;;;;2.05;1.10;;;19.40;50.00;;;;;;4925787;29;20063;-82
2021/12/11 04:31:42;;;;;;;2.33;1.20;;;19.40;49.90;;;;;;4926110;29;20055;-83
2021/12/11 04:34:09;;;;;;;2.25;1.05;;;19.40;49.90;;;;;;4924131;29;20502;-82
2021/12/11 04:36:38;;;;;;;1.88;1.00;;;19.40;50.00;;;;;;4916534;29;20075;-83
2021/12/11 04:39:06;;;;;;;1.98;1.00;;;19.40;49.90;;;;;;4917005;29;20058;-83
2021/12/11 04:41:38;;;;;;;1.83;0.82;;;19.40;49.80;;;;;;4917108;29;20106;-83
2021/12/11 04:44:15;;;;;;;1.83;0.88;;;19.40;49.80;;;;;;4916324;29;20063;-83
2021/12/11 04:46:40;;;;;;;2.33;1.10;;;19.40;49.80;;;;;;4917103;29;20457;-83
2021/12/11 04:49:20;;;;;;;2.80;1.20;;;19.40;49.80;;;;;;4916833;29;20138;-83
2021/12/11 04:51:54;;;;;;;2.17;1.02;;;19.40;49.80;;;;;;4933550;29;20044;-83
2021/12/11 04:54:40;;;;;;;1.67;0.95;;;19.40;49.80;;;;;;4916283;29;20107;-83
2021/12/11 05:07:35;;;;;;;1.98;0.90;;;19.40;49.80;;;;;;4932276;29;20059;-84
2021/12/11 05:10:15;;;;;;;2.08;0.90;;;19.40;49.80;;;;;;4916586;29;20097;-83
2021/12/11 05:12:41;;;;;;;2.33;1.05;;;19.40;49.80;;;;;;4915718;29;20097;-83
2021/12/11 05:15:19;;;;;;;2.10;1.27;;;19.40;49.80;;;;;;4916396;29;20086;-84
2021/12/11 05:17:44;;;;;;;1.83;0.90;;;19.40;49.80;;;;;;4891459;29;20048;-84
2021/12/11 05:20:11;;;;;;;3.10;1.23;;;19.40;49.80;;;;;;4935059;29;20081;-83
2021/12/11 05:22:37;;;;;;;1.88;0.75;;;19.40;49.90;;;;;;4744034;29;5095078;-83
2021/12/11 05:25:03;;;;;;;1.60;0.90;;;19.40;49.90;;;;;;4931396;29;20070;-84
2021/12/11 05:27:28;;;;;;;1.80;1.17;;;19.40;49.90;;;;;;4931991;29;20143;-84
2021/12/11 05:29:54;;;;;;;2.35;1.10;;;19.40;49.90;;;;;;4932010;29;20530;-84
2021/12/11 05:32:21;;;;;;;2.22;0.98;;;19.40;49.90;;;;;;4931104;29;20047;-84
2021/12/11 05:34:47;;;;;;;1.88;0.93;;;19.40;49.90;;;;;;4946711;29;20515;-84
2021/12/11 05:37:12;;;;;;;2.03;1.02;;;19.40;49.90;;;;;;4946681;29;20056;-84
2021/12/11 05:39:38;;;;;;;1.80;1.00;;;19.50;49.90;;;;;;4947420;29;20039;-84
2021/12/11 05:42:04;;;;;;;2.05;1.13;;;20.50;50.50;;;;;;4947443;29;20055;-82
2021/12/11 05:44:32;;;;;;;3.17;1.35;;;19.50;49.90;;;;;;4931489;29;20103;-83
2021/12/11 05:46:57;;;;;;;2.58;1.23;;;19.50;49.90;;;;;;4946812;29;20046;-83
2021/12/11 05:49:25;;;;;;;2.17;1.10;;;19.50;50.00;;;;;;4931523;29;20043;-83
2021/12/11 05:51:50;;;;;;;2.50;1.20;;;19.50;49.90;;;;;;4931546;29;20499;-84
2021/12/11 05:54:21;;;;;;;2.22;1.00;;;19.50;50.60;;;;;;4947233;29;20075;-84
2021/12/11 05:56:46;;;;;;;2.55;1.33;;;20.60;50.50;;;;;;4931443;29;20057;-84
2021/12/11 05:59:13;;;;;;;2.53;1.10;;;19.50;49.90;;;;;;4947423;29;20496;-83
2021/12/11 06:01:42;;;;;;;3.28;1.10;;;19.50;49.80;;;;;;4930841;29;20051;-84
2021/12/11 06:04:10;;;;;;;2.38;1.17;;;19.50;49.80;;;;;;4953376;28;20180;-83
2021/12/11 06:06:37;;;;;;;3.25;1.10;;;19.50;49.80;;;;;;4948907;28;20058;-85
2021/12/11 06:09:04;;;;;;;2.33;1.00;;;19.50;49.80;;;;;;4944963;28;20504;-84
2021/12/11 06:11:29;;;;;;;2.15;1.05;;;19.50;49.80;;;;;;4931254;29;20048;-84
2021/12/11 06:13:55;;;;;;;2.20;1.10;;;19.50;49.80;;;;;;4946235;29;20062;-84
2021/12/11 06:16:21;;;;;;;2.40;1.23;;;19.60;49.80;;;;;;4947386;29;20114;-83
2021/12/11 06:18:46;;;;;;;1.80;1.02;;;19.50;49.80;;;;;;4945189;29;20636;-83
2021/12/11 06:21:13;;;;;;;2.15;0.80;;;19.60;49.80;;;;;;4949393;29;20047;-83
2021/12/11 06:23:38;;;;;;;2.30;1.10;;;19.50;49.80;;;;;;4934080;29;20158;-84
2021/12/11 06:26:04;;;;;;;2.20;1.08;;;19.60;49.80;;;;;;4934059;29;20150;-84
2021/12/11 06:28:30;;;;;;;2.08;0.90;;;19.50;49.80;;;;;;4933456;29;20059;-85
2021/12/11 06:30:58;;;;;;;2.17;1.10;;;19.50;49.70;;;;;;4937332;28;20133;-84
2021/12/11 06:33:27;;;;;;;1.75;0.85;;;19.60;49.80;;;;;;4960576;28;20081;-84
2021/12/11 06:35:59;;;;;;;1.63;0.90;;;20.60;50.30;;;;;;4937139;29;20143;-83
2021/12/11 06:38:26;;;;;;;1.63;1.00;;;19.60;49.80;;;;;;4933720;29;20134;-85
2021/12/11 06:40:52;;;;;;;3.20;1.10;;;19.90;49.90;;;;;;4942212;28;20141;-85
2021/12/11 06:43:18;;;;;;;1.77;1.00;;;19.60;49.80;;;;;;4952310;28;20038;-85
2021/12/11 06:45:45;;;;;;;1.90;1.00;;;20.30;50.20;;;;;;4953004;28;20495;-85
2021/12/11 06:48:11;;;;;;;1.88;0.90;;;19.50;49.80;;;;;;4943582;29;20143;-85
2021/12/11 06:50:36;;;;;;;2.38;1.10;;;19.50;49.70;;;;;;4932986;29;20142;-85
2021/12/11 06:53:06;;;;;;;2.00;1.00;;;19.50;49.70;;;;;;4933679;29;20083;-86
2021/12/11 06:55:32;;;;;;;1.58;0.80;;;19.60;49.70;;;;;;4918059;29;20039;-85
2021/12/11 06:57:57;;;;;;;2.85;1.10;;;19.60;49.80;;;;;;4933224;29;20054;-85
2021/12/11 07:00:23;;;;;;;2.20;1.00;;;19.60;49.80;;;;;;4932775;29;20051;-85
2021/12/11 07:02:49;;;;;;;1.40;0.80;;;19.60;49.80;;;;;;4917371;29;20450;-85
2021/12/11 07:05:14;;;;;;;1.70;0.90;;;19.60;49.80;;;;;;4933361;29;20043;-85
2021/12/11 07:07:42;;;;;;;1.52;1.00;;;19.60;49.70;;;;;;4918036;29;20586;-85
2021/12/11 07:10:11;;;;;;;2.50;1.20;;;19.50;49.70;;;;;;4933431;29;20047;-85
2021/12/11 07:12:36;;;;;;;1.58;0.90;;;19.90;49.90;;;;;;4933527;29;20074;-85
2021/12/11 07:15:03;;;;;;;2.00;1.20;;;19.60;49.80;;;;;;4933546;29;20039;-85
2021/12/11 07:17:29;;;;;;;2.17;1.05;;;19.60;49.70;;;;;;4933093;29;20098;-85
2021/12/11 07:19:55;;;;;;;2.22;1.02;;;19.50;49.60;;;;;;4935630;29;20055;-85
2021/12/11 07:22:23;;;;;;;1.85;1.00;;;19.60;49.70;;;;;;4953162;29;20114;-86
2021/12/11 07:24:56;;;;;;;2.55;1.20;;;19.50;49.70;;;;;;4936894;29;20588;-85
2021/12/11 07:27:21;;;;;;;2.05;1.10;;;19.50;49.60;;;;;;4953287;29;20394;-86
2021/12/11 07:29:47;;;;;;;2.63;1.20;;;19.60;49.60;;;;;;4953112;29;20043;-85
2021/12/11 07:32:12;;;;;;;2.10;1.00;;;19.50;49.60;;;;;;4952477;29;20043;-85
2021/12/11 07:34:38;;;;;;;2.22;1.30;;;20.40;50.00;;;;;;4936854;29;20400;-85
2021/12/11 07:37:04;;;;;;;1.65;0.98;;;19.50;49.50;;;;;;4936851;29;20058;-87
2021/12/11 07:39:30;;;;;;;1.98;1.10;;;19.50;49.60;;;;;;4936281;29;20043;-84
2021/12/11 07:41:56;;;;;;;1.88;1.08;;;19.60;49.50;;;;;;4953123;29;20058;-85
2021/12/11 07:44:22;;;;;;;2.55;1.10;;;19.60;49.50;;;;;;4954018;29;20054;-84
2021/12/11 07:46:47;;;;;;;3.10;1.30;;;20.50;50.00;;;;;;4938031;28;20150;-82
2021/12/11 07:49:13;;;;;;;2.42;1.10;;;19.50;49.50;;;;;;4952674;29;20216;-84
2021/12/11 07:51:39;;;;;;;2.55;1.25;;;19.50;49.40;;;;;;4952226;29;20062;-83
2021/12/11 07:54:04;;;;;;;2.67;1.45;;;19.50;49.40;;;;;;4935509;29;20150;-82
2021/12/11 07:56:30;;;;;;;2.20;1.25;;;19.50;49.40;;;;;;4941597;28;20070;-85
2021/12/11 07:58:59;;;;;;;3.63;1.40;;;19.50;49.20;;;;;;4974257;28;20053;-84
2021/12/11 08:01:24;;;;;;;4.05;1.50;;;19.50;49.20;;;;;;4974474;28;20169;-84
2021/12/11 08:03:50;;;;;;;2.70;1.40;;;19.80;49.30;;;;;;4974085;28;20150;-84
2021/12/11 08:06:15;;;;;;;3.80;1.50;;;19.50;49.10;;;;;;4971048;28;20034;-82
2021/12/11 08:08:42;;;;;;;3.00;1.30;;;19.50;49.10;;;;;;4991072;28;20054;-83
2021/12/11 08:11:12;;;;;;;2.72;1.23;;;19.50;49.10;;;;;;4992636;28;20133;-82
2021/12/11 08:13:39;;;;;;;5.32;1.60;;;19.80;49.10;;;;;;4957376;28;20050;-84
2021/12/11 08:16:05;;;;;;;3.63;1.40;;;19.40;48.90;;;;;;4955155;28;20082;-85
2021/12/11 08:18:30;;;;;;;2.90;1.30;;;19.40;48.90;;;;;;4955550;28;20414;-85
2021/12/11 08:20:56;;;;;;;3.58;1.38;;;19.40;49.00;;;;;;4965245;28;20537;-85
2021/12/11 08:23:22;;;;;;;2.58;1.20;;;19.40;49.00;;;;;;4974657;28;20082;-85
2021/12/11 08:25:48;;;;;;;2.58;1.33;;;19.40;48.90;;;;;;4974601;28;20061;-84
2021/12/11 08:28:16;;;;;;;2.33;1.13;;;19.40;48.90;;;;;;4962199;28;20046;-84
2021/12/11 08:30:43;;;;;;;2.65;1.13;;;19.40;48.90;;;;;;4971542;28;20386;-87
2021/12/11 08:33:09;;;;;;;3.60;1.63;;;19.40;48.90;;;;;;4990866;28;20090;-87
2021/12/11 08:35:35;;;;;;;3.28;1.42;;;20.20;49.40;;;;;;4973971;28;20054;-84
2021/12/11 08:38:02;;;;;;;2.90;1.38;;;19.40;49.70;;;;;;4968352;28;20053;-85
2021/12/11 08:40:30;;;;;;;3.42;1.33;;;19.40;49.00;;;;;;4971120;28;20706;-85
2021/12/11 08:42:56;;;;;;;2.45;1.20;;;19.40;48.90;;;;;;4972368;28;20152;-84
2021/12/11 08:45:25;;;;;;;3.17;1.60;;;19.40;49.00;;;;;;4991635;28;20129;-85
2021/12/11 08:47:54;;;;;;;3.38;1.48;;;19.40;49.00;;;;;;4974310;28;20138;-84
2021/12/11 08:50:21;;;;;;;3.33;1.50;;;19.40;49.00;;;;;;4968308;28;20043;-84
2021/12/11 08:52:49;;;;;;;2.95;1.42;;;19.30;48.90;;;;;;4972633;28;20058;-84
2021/12/11 08:55:18;;;;;;;3.42;1.45;;;19.40;49.00;;;;;;4973887;28;20046;-84
2021/12/11 08:57:43;;;;;;;4.95;1.38;;;19.40;49.00;;;;;;4973492;28;20054;-84
2021/12/11 09:00:16;;;;;;;3.28;1.30;;;19.40;49.10;;;;;;4974118;28;20119;-84
2021/12/11 09:02:45;;;;;;;3.83;1.27;;;19.40;49.10;;;;;;4972504;28;20654;-84
2021/12/11 09:05:15;;;;;;;5.32;1.52;;;19.30;49.10;;;;;;4980764;28;20050;-84
2021/12/11 09:07:55;;;;;;;3.00;1.15;;;19.40;49.00;;;;;;4961773;28;20054;-84
2021/12/11 09:10:25;;;;;;;4.25;1.55;;;19.40;49.10;;;;;;4972988;28;20658;-82
2021/12/11 09:13:00;;;;;;;2.90;1.52;;;19.30;49.10;;;;;;4989800;28;20121;-82
2021/12/11 09:15:37;;;;;;;3.38;1.30;;;19.60;49.30;;;;;;4989837;28;20069;-84
2021/12/11 09:18:12;;;;;;;2.20;1.17;;;19.40;49.20;;;;;;4948120;28;20399;-83
2021/12/11 09:20:41;;;;;;;2.45;1.30;;;19.40;49.20;;;;;;4956915;28;20554;-84
2021/12/11 09:23:12;;;;;;;2.60;1.27;;;19.40;49.20;;;;;;4978187;28;20630;-82
2021/12/11 09:25:47;;;;;;;4.50;1.35;;;19.40;49.20;;;;;;4972072;28;20046;-84
2021/12/11 09:28:16;;;;;;;4.22;1.35;;;19.40;49.20;;;;;;4970759;28;20043;-84
2021/12/11 09:30:49;;;;;;;2.80;1.27;;;20.30;49.70;;;;;;4971152;28;20050;-83
2021/12/11 09:33:18;;;;;;;3.20;1.27;;;19.40;49.20;;;;;;4970220;28;20060;-84
2021/12/11 09:35:52;;;;;;;2.72;1.50;;;19.40;49.20;;;;;;4972950;28;20541;-83
2021/12/11 09:38:27;;;;;;;4.40;1.48;;;19.40;49.20;;;;;;4988747;28;20465;-83
2021/12/11 09:40:53;;;;;;;2.90;1.55;;;19.40;49.20;;;;;;4989000;28;20126;-88
2021/12/11 09:43:25;;;;;;;3.17;1.67;;;19.40;49.20;;;;;;4973223;28;20050;-84
2021/12/11 09:45:51;;;;;;;3.35;1.42;;;19.40;49.20;;;;;;4972657;28;20688;-84
2021/12/11 09:48:17;;;;;;;2.95;1.42;;;19.40;49.20;;;;;;4973420;28;20042;-84
2021/12/11 09:50:54;;;;;;;2.72;1.35;;;19.40;49.20;;;;;;4972642;28;20050;-84
2021/12/11 09:53:22;;;;;;;2.63;1.25;;;19.50;49.20;;;;;;4970639;28;20521;-84
2021/12/11 09:55:47;;;;;;;3.00;1.50;;;20.90;50.00;;;;;;4799135;28;20505;-84
2021/12/11 09:58:18;;;;;;;3.15;1.55;;;19.50;49.20;;;;;;4965412;28;20074;-84
2021/12/11 10:00:56;;;;;;;3.22;1.50;;;19.50;49.20;;;;;;4967619;28;20054;-82
2021/12/11 10:03:26;;;;;;;2.38;1.30;;;19.50;49.20;;;;;;4971817;28;20062;-83
2021/12/11 10:05:56;;;;;;;3.38;1.38;;;19.50;49.20;;;;;;4989714;28;20419;-85
2021/12/11 10:08:32;;;;;;;2.75;1.40;;;19.50;49.10;;;;;;4972764;28;20517;-84
2021/12/11 10:11:01;;;;;;;2.58;1.40;;;20.50;49.70;;;;;;4972606;28;20042;-85
2021/12/11 10:13:27;;;;;;;3.67;1.67;;;19.50;49.10;;;;;;4971870;28;20056;-84
2021/12/11 10:15:53;;;;;;;2.67;1.55;;;19.50;49.10;;;;;;4972747;28;20045;-85
2021/12/11 10:18:20;;;;;;;2.60;1.40;;;19.60;49.20;;;;;;4972928;28;20078;-85
2021/12/11 10:20:51;;;;;;;2.78;1.45;;;19.60;49.10;;;;;;4987979;28;20046;-83
2021/12/11 10:23:19;;;;;;;2.75;1.27;;;19.60;49.10;;;;;;4972651;28;20142;-85
2021/12/11 10:25:45;;;;;;;2.92;1.55;;;19.60;49.20;;;;;;4988995;28;20584;-82
2021/12/11 10:28:12;;;;;;;4.40;1.60;;;19.60;49.10;;;;;;4988094;28;20050;-87
2021/12/11 10:30:44;;;;;;;3.58;1.85;;;19.60;49.10;;;;;;4970761;28;20128;-87
2021/12/11 10:33:10;;;;;;;2.90;1.48;;;19.60;49.00;;;;;;4988835;28;20046;-86
2021/12/11 10:35:38;;;;;;;2.88;1.65;;;19.60;49.00;;;;;;4971155;28;20057;-83
2021/12/11 10:38:05;;;;;;;2.85;1.80;;;19.60;49.70;;;;;;4972178;28;20062;-83
2021/12/11 10:40:34;;;;;;;4.05;1.70;;;19.70;49.10;;;;;;4972508;28;20050;-85
2021/12/11 10:43:04;;;;;;;3.25;1.70;;;19.70;48.90;;;;;;4987821;28;20042;-84
2021/12/11 10:45:29;;;;;;;3.40;1.70;;;19.70;48.90;;;;;;4960610;28;20061;-85
2021/12/11 10:47:59;;;;;;;3.05;1.70;;;19.70;48.90;;;;;;4952856;28;20043;-84
2021/12/11 10:51:05;;;;;;;3.22;1.80;;;20.30;49.30;;;;;;4952512;28;20626;-84
2021/12/11 10:53:30;;;;;;;2.63;1.58;;;19.70;48.90;;;;;;4973107;28;20054;-85
2021/12/11 10:55:57;;;;;;;4.28;1.60;;;19.70;48.90;;;;;;4956426;28;20039;-83
2021/12/11 10:58:28;;;;;;;3.30;1.55;;;19.70;48.70;;;;;;4941328;28;20094;-85
2021/12/11 11:00:56;;;;;;;2.40;1.58;;;20.40;49.20;;;;;;4956875;28;20047;-86
2021/12/11 11:03:21;;;;;;;3.67;1.40;;;19.70;48.90;;;;;;4956448;28;20435;-86
2021/12/11 11:06:04;;;;;;;2.65;1.50;;;21.10;49.60;;;;;;4956632;28;20062;-88
2021/12/11 11:08:31;;;;;;;2.75;1.50;;;21.10;49.60;;;;;;4956722;28;20064;-84
2021/12/11 11:11:01;;;;;;;2.72;1.77;;;19.80;48.70;;;;;;4970702;28;20057;-84
2021/12/11 11:13:27;;;;;;;3.15;1.77;;;19.80;48.90;;;;;;4955853;28;20581;-84
2021/12/11 11:15:53;;;;;;;3.13;1.83;;;21.10;49.50;;;;;;4953287;28;20078;-84
2021/12/11 11:18:19;;;;;;;2.47;1.35;;;19.80;48.80;;;;;;4947569;29;20098;-86
2021/12/11 11:20:55;;;;;;;2.40;1.38;;;19.70;48.70;;;;;;4938192;28;20462;-85
2021/12/11 11:23:21;;;;;;;3.55;1.77;;;19.80;48.70;;;;;;4971798;28;20058;-85
2021/12/11 11:25:48;;;;;;;3.03;1.50;;;19.70;48.70;;;;;;4972256;28;20418;-85
2021/12/11 11:28:24;;;;;;;4.18;1.38;;;19.80;48.70;;;;;;4972716;28;20058;-85
2021/12/11 11:31:27;;;;;;;3.40;1.50;;;19.80;48.70;;;;;;4969475;28;20733;-86
2021/12/11 11:33:54;;;;;;;3.60;1.67;;;18.70;48.20;;;;;;4974635;28;20054;-85
2021/12/11 11:36:30;;;;;;;2.70;1.55;;;19.80;48.70;;;;;;4971282;28;20062;-85
2021/12/11 11:39:00;;;;;;;3.45;1.83;;;20.80;49.40;;;;;;4971328;28;20089;-86
2021/12/11 11:41:29;;;;;;;3.70;1.45;;;18.40;47.90;;;;;;4972073;28;20093;-86
2021/12/11 11:43:54;;;;;;;2.83;1.35;;;19.80;48.70;;;;;;4971234;28;20641;-86
2021/12/11 11:46:22;;;;;;;2.80;1.42;;;20.30;48.90;;;;;;4951608;29;20118;-85
2021/12/11 11:48:49;;;;;;;3.03;1.48;;;19.70;48.70;;;;;;4952761;29;20066;-86
2021/12/11 11:51:30;;;;;;;2.60;1.30;;;19.80;48.70;;;;;;4960078;28;20058;-86
2021/12/11 11:53:57;;;;;;;2.20;1.38;;;19.80;48.70;;;;;;4957527;28;20133;-85
2021/12/11 11:56:25;;;;;;;1.88;1.20;;;19.80;48.70;;;;;;4956225;28;20050;-86
2021/12/11 11:58:51;;;;;;;2.88;1.40;;;19.80;48.70;;;;;;4971433;28;20051;-86
2021/12/11 12:01:24;;;;;;;2.88;1.52;;;19.80;48.70;;;;;;4971831;28;20041;-86
2021/12/11 12:03:50;;;;;;;2.97;1.45;;;19.80;48.70;;;;;;4970283;28;20081;-85
2021/12/11 12:06:22;;;;;;;2.40;1.30;;;20.70;49.20;;;;;;4971141;28;20049;-85
2021/12/11 12:08:48;;;;;;;2.85;1.50;;;19.80;48.70;;;;;;4972118;28;20055;-85
2021/12/11 12:11:14;;;;;;;2.63;1.30;;;19.80;48.70;;;;;;4971637;28;20105;-85
2021/12/11 12:13:39;;;;;;;2.15;1.20;;;19.90;48.80;;;;;;4971100;28;20417;-85
2021/12/11 12:16:07;;;;;;;1.98;1.30;;;20.10;49.10;;;;;;4987722;28;20368;-85
2021/12/11 12:18:33;;;;;;;3.30;1.58;;;19.70;48.70;;;;;;4971509;28;20491;-86
2021/12/11 12:20:58;;;;;;;1.90;1.20;;;21.30;49.50;;;;;;4954439;28;20165;-87
2021/12/11 12:23:31;;;;;;;2.83;1.17;;;19.70;48.70;;;;;;4967037;28;20505;-85
2021/12/11 12:25:58;;;;;;;2.45;1.17;;;19.60;48.60;;;;;;4950425;29;20047;-86
2021/12/11 12:28:25;;;;;;;2.80;1.30;;;19.70;48.70;;;;;;4949581;29;20493;-85
2021/12/11 12:30:56;;;;;;;3.05;1.45;;;19.70;48.70;;;;;;4952077;29;20143;-83
2021/12/11 12:33:21;;;;;;;2.53;1.33;;;19.30;48.50;;;;;;4952059;29;20059;-85
2021/12/11 12:35:47;;;;;;;2.58;1.20;;;19.70;48.70;;;;;;4951351;29;20059;-85
2021/12/11 12:38:14;;;;;;;1.92;1.00;;;19.80;48.70;;;;;;4951761;29;20102;-86
2021/12/11 12:41:05;;;;;;;2.33;1.17;;;19.70;48.70;;;;;;4950173;29;20063;-85
2021/12/11 12:46:16;;;;;;;2.45;1.00;;;20.20;48.90;;;;;;4951455;29;20063;-86
2021/12/11 12:48:42;;;;;;;2.40;1.15;;;19.70;48.70;;;;;;4964448;28;20047;-86
2021/12/11 12:51:09;;;;;;;1.75;1.13;;;19.70;48.60;;;;;;4969492;28;20039;-86
2021/12/11 12:53:35;;;;;;;2.03;1.10;;;19.70;49.30;;;;;;4967284;28;20055;-85
2021/12/11 12:56:05;;;;;;;2.15;1.20;;;19.70;48.60;;;;;;4965432;28;20039;-85
2021/12/11 12:58:38;;;;;;;2.55;1.20;;;20.90;49.20;;;;;;4970264;28;20054;-85
2021/12/11 13:01:07;;;;;;;2.92;1.42;;;19.70;48.70;;;;;;4968328;28;20066;-86
2021/12/11 13:03:34;;;;;;;2.72;1.42;;;19.70;48.70;;;;;;4958936;28;20122;-84
2021/12/11 13:06:06;;;;;;;2.15;1.33;;;19.70;48.80;;;;;;4943098;28;20054;-85
2021/12/11 13:08:41;;;;;;;2.60;1.40;;;19.70;48.70;;;;;;4934992;29;20451;-85
2021/12/11 13:11:21;;;;;;;1.90;1.10;;;19.70;48.70;;;;;;4960865;28;20046;-84